Hauptseite
METAR-TAF:

METAR-TAF

Flughäfen :

Indiana County Airport (Jimmy Stewart Field)

Indiana, Pennsylvania, Vereinigte Staaten

Breite: 40-38N, Länge: 079-06W, Höhe: 429 m

Beobachtung

Neuester Wetterbericht von vor 27 Minuten, um 01:35 UTC
Windstille
Temperatur 1°C
Luftfeuchtigkeit 93%
Luftdruck 1020 hPa
Sichtweite: 16.1 km
Aufgelockert bewölkt in der Höhe von 1800 ft
Durchbrochene Bewölkung in der Höhe von 3000 ft
Durchbrochene Bewölkung in der Höhe von 12000 ft

METAR: KIDI 170135Z AUTO 00000KT 10SM SCT018 BKN030 BKN120 01/M00 A3013 RMK A01

Zeit: 21:02 (02:02 UTC)


TAF: fehlend

Wetterbeobachtungen und Prognosen von mehr als 4000 Flughäfen (METAR und TAF Bericht).

Die verfügbaren Stationen werden durch gelbe und rote Markierungen auf der Karte dargestellt.

Führen Sie die Maus auf sie, um den Namen der Station zu sehen.

Darauf klicken, um die Beobachtung von Wetterbeobachtungen und Prognosen zu sehen.

Um die Karte zu ändern : klicken Sie auf den grünen Tasten mit einem schwarzen Kreuz Zum Vergrößern, auf den grünen Button mit einem Gedankenstrich zu verkleinern, oder auf die grünen Pfeile für benachbarte Karten.


METAR-TAF: